Time;durP1;ratioP1;P1;durP2;ratioP2;P2;SDS_P1;SDS_P2;PMS_P1;PMS_P2;Temp;Humidity;BMP_temperature;BMP_pressure;BME280_temperature;BME280_humidity;BME280_pressure;Samples;Min_cycle;Max_cycle;Signal;HPM_P1;HPM_P2
2022/02/16 04:42:27;;;;;;;2.90;2.10;;;;;;;11.21;48.39;98202.97;6888008;28;20248;-86
2022/02/16 04:45:48;;;;;;;1.93;1.83;;;;;;;11.01;48.43;98192.38;6873610;28;20217;-88
2022/02/16 04:49:10;;;;;;;3.77;2.50;;;;;;;10.79;47.80;98136.38;6876638;28;20212;-88
2022/02/16 04:52:35;;;;;;;2.87;2.40;;;;;;;11.19;47.89;98143.84;6875988;28;20243;-86
2022/02/16 04:55:57;;;;;;;4.20;2.50;;;;;;;11.32;47.97;98159.03;6875464;28;20279;-85
2022/02/16 04:59:20;;;;;;;5.97;3.00;;;;;;;11.49;48.13;98163.59;6875558;28;20580;-85
2022/02/16 05:02:42;;;;;;;5.60;3.80;;;;;;;11.12;48.21;98139.56;6874086;28;20229;-86
2022/02/16 05:06:03;;;;;;;5.87;3.70;;;;;;;10.14;50.08;98105.44;6869852;28;20212;-84
2022/02/16 05:09:25;;;;;;;8.17;4.23;;;;;;;10.36;49.69;98082.47;6872911;28;20198;-85
2022/02/16 05:12:46;;;;;;;8.03;4.93;;;;;;;10.41;49.84;98079.94;6872400;28;20237;-84
2022/02/16 05:16:12;;;;;;;13.97;6.60;;;;;;;11.29;49.43;98154.94;6870624;28;20197;-87
2022/02/16 05:19:35;;;;;;;9.53;6.17;;;;;;;10.77;49.71;98144.69;6868485;28;20223;-86
2022/02/16 05:22:57;;;;;;;10.07;5.50;;;;;;;10.95;50.40;98160.91;6879618;28;20244;-85
2022/02/16 05:26:18;;;;;;;10.17;4.90;;;;;;;10.49;49.56;98098.53;6880420;28;20212;-86
2022/02/16 05:29:57;;;;;;;14.63;8.40;;;;;;;11.28;49.45;98155.16;6875130;28;20214;-88
2022/02/16 05:33:20;;;;;;;18.20;8.53;;;;;;;11.30;48.96;98150.34;6871050;28;20221;-85
2022/02/16 05:36:42;;;;;;;19.77;9.13;;;;;;;11.19;48.71;98143.84;6875058;28;20213;-86
2022/02/16 05:40:09;;;;;;;17.17;8.50;;;;;;;10.60;49.08;98013.41;6873959;28;20217;-85
2022/02/16 05:43:40;;;;;;;14.20;6.93;;;;;;;10.36;49.80;98033.16;6873661;28;20189;-95
2022/02/16 05:47:02;;;;;;;9.63;4.90;;;;;;;10.45;50.17;98093.81;6876170;28;20216;-85
2022/02/16 05:50:58;;;;;;;11.37;5.57;;;;;;;10.40;49.46;98061.31;6871158;28;20218;-90
2022/02/16 05:58:36;;;;;;;11.67;4.70;;;;;;;11.08;49.34;98093.31;6889986;23;20237;-76
2022/02/16 06:05:37;;;;;;;6.97;3.50;;;;;;;11.20;49.10;98106.88;6790837;29;20199;-78
2022/02/16 06:09:00;;;;;;;5.80;3.17;;;;;;;11.53;47.96;98096.50;6791283;29;20215;-76
2022/02/16 06:12:22;;;;;;;4.43;2.80;;;;;;;11.82;47.61;98095.69;6765512;29;20295;-81
2022/02/16 06:15:43;;;;;;;3.87;2.70;;;;;;;11.73;48.02;98075.47;6765841;29;20548;-77
2022/02/16 06:19:05;;;;;;;4.03;2.70;;;;;;;11.75;47.90;98098.47;6766640;29;20843;-76
2022/02/16 06:22:27;;;;;;;3.30;2.37;;;;;;;11.52;47.54;98038.97;6766473;29;20322;-76
2022/02/16 06:25:53;;;;;;;3.33;2.17;;;;;;;11.79;47.29;98050.22;6767236;29;20204;-76
2022/02/16 06:29:14;;;;;;;2.13;1.93;;;;;;;11.77;47.30;98082.06;6770528;29;20280;-76
2022/02/16 06:32:36;;;;;;;2.40;2.03;;;;;;;11.77;48.39;98118.00;6771021;29;20216;-76
2022/02/16 06:35:58;;;;;;;2.70;2.40;;;;;;;11.74;47.93;98077.13;6782569;29;20204;-76
2022/02/16 06:39:19;;;;;;;2.90;2.00;;;;;;;12.03;47.67;98101.41;6776911;29;20211;-77
2022/02/16 06:42:43;;;;;;;3.03;2.30;;;;;;;11.71;47.95;98069.47;6822210;29;20236;-77
2022/02/16 06:46:05;;;;;;;2.30;2.07;;;;;;;12.12;47.16;98093.78;6845553;28;20202;-76
2022/02/16 06:49:26;;;;;;;1.77;1.67;;;;;;;11.52;48.66;98084.06;6847795;29;20217;-76
2022/02/16 06:52:48;;;;;;;2.33;1.80;;;;;;;11.32;49.09;98068.13;6848545;29;20202;-76
2022/02/16 06:56:10;;;;;;;1.87;1.77;;;;;;;11.54;48.56;98050.38;6848192;29;20210;-76
2022/02/16 06:59:33;;;;;;;2.00;1.80;;;;;;;11.58;47.43;97996.75;6845063;28;20296;-76
2022/02/16 07:02:55;;;;;;;2.07;1.87;;;;;;;11.21;48.16;97992.53;6846364;28;20229;-76
2022/02/16 07:06:16;;;;;;;1.67;1.57;;;;;;;10.92;49.38;98023.00;6845669;28;20221;-76
2022/02/16 07:09:38;;;;;;;1.73;1.63;;;;;;;11.33;49.50;98067.06;6847671;29;20205;-76
2022/02/16 07:13:00;;;;;;;1.80;1.70;;;;;;;11.32;49.69;98078.06;6847406;28;20237;-76
2022/02/16 07:16:23;;;;;;;2.07;1.80;;;;;;;11.23;49.96;98055.97;6829429;28;20206;-76
2022/02/16 07:19:44;;;;;;;4.37;2.23;;;;;;;11.06;49.39;97973.22;6846993;28;20209;-76
2022/02/16 07:23:06;;;;;;;2.60;2.23;;;;;;;11.61;49.54;98064.63;6846829;29;20360;-76
2022/02/16 07:26:28;;;;;;;4.03;2.50;;;;;;;11.60;49.47;98021.66;6846913;28;20213;-76
2022/02/16 07:29:50;;;;;;;2.23;1.93;;;;;;;11.85;48.73;98042.03;6846572;28;20209;-76
2022/02/16 07:33:13;;;;;;;4.10;2.87;;;;;;;11.17;51.14;98037.19;6844726;28;20277;-76
2022/02/16 07:36:35;;;;;;;7.10;4.23;;;;;;;11.80;49.45;98028.41;6846017;28;20209;-77
2022/02/16 07:39:59;;;;;;;6.23;3.40;;;;;;;11.13;50.36;97976.63;6846361;28;20226;-76
2022/02/16 07:43:21;;;;;;;11.00;5.10;;;;;;;11.93;49.74;98025.50;6846330;28;20235;-76
2022/02/16 07:46:43;;;;;;;4.53;2.80;;;;;;;10.68;51.22;97959.22;6846153;28;20211;-77
2022/02/16 07:50:06;;;;;;;4.53;2.90;;;;;;;11.54;50.66;98044.97;6846089;28;20209;-76
2022/02/16 07:53:29;;;;;;;4.63;2.87;;;;;;;11.60;51.15;98040.56;6846063;29;20206;-76
2022/02/16 07:56:50;;;;;;;2.03;1.90;;;;;;;10.65;51.88;97970.44;6845806;29;20265;-76
2022/02/16 08:00:13;;;;;;;2.13;1.93;;;;;;;11.39;51.94;98035.66;6845293;28;20205;-76
2022/02/16 08:03:35;;;;;;;2.63;2.10;;;;;;;11.73;51.34;98048.47;6845745;28;20233;-77
2022/02/16 08:06:59;;;;;;;1.67;1.57;;;;;;;11.01;52.47;98038.63;6845769;28;20272;-76
2022/02/16 08:10:21;;;;;;;1.57;1.47;;;;;;;11.30;52.36;98023.53;6845458;28;20276;-76
2022/02/16 08:13:42;;;;;;;1.70;1.60;;;;;;;11.16;52.92;97997.78;6845442;28;20212;-76
2022/02/16 08:17:04;;;;;;;1.70;1.60;;;;;;;10.91;52.97;97959.28;6845323;28;20653;-76
2022/02/16 08:20:26;;;;;;;1.93;1.77;;;;;;;11.67;51.90;98008.88;6845357;28;20664;-76
2022/02/16 08:23:49;;;;;;;1.77;1.67;;;;;;;11.77;51.58;98014.53;6844782;28;20571;-76
2022/02/16 08:27:11;;;;;;;1.50;1.40;;;;;;;11.60;52.36;98013.56;6845296;29;20564;-76
2022/02/16 08:30:33;;;;;;;1.60;1.50;;;;;;;11.18;53.59;98007.28;6845139;29;20217;-76
2022/02/16 08:33:55;;;;;;;1.23;1.23;;;;;;;10.63;55.61;98010.28;6844847;28;20225;-76
2022/02/16 08:37:17;;;;;;;1.30;1.30;;;;;;;10.87;54.59;98020.16;6845049;29;20209;-76
2022/02/16 08:40:40;;;;;;;1.53;1.43;;;;;;;11.75;53.64;98001.28;6845321;29;20213;-76
2022/02/16 08:44:02;;;;;;;1.47;1.47;;;;;;;11.37;53.26;97936.03;6844618;28;20214;-76
2022/02/16 08:47:23;;;;;;;1.60;1.50;;;;;;;11.26;54.83;97985.38;6844993;29;20217;-76
2022/02/16 08:50:45;;;;;;;1.80;1.70;;;;;;;10.79;56.90;97988.91;6844442;28;20221;-76
2022/02/16 08:54:07;;;;;;;2.00;1.90;;;;;;;10.49;56.33;97911.72;6844578;29;20695;-76
2022/02/16 08:57:30;;;;;;;1.43;1.43;;;;;;;10.85;57.38;97987.16;6844896;28;20580;-76
2022/02/16 09:00:52;;;;;;;1.80;1.70;;;;;;;10.36;57.59;97893.88;6836773;28;20206;-76
2022/02/16 09:04:14;;;;;;;1.60;1.50;;;;;;;10.71;57.54;97902.13;6817483;29;20227;-76
2022/02/16 09:07:36;;;;;;;1.50;1.50;;;;;;;10.91;57.11;97935.03;6829858;28;20213;-77
2022/02/16 09:10:57;;;;;;;1.90;1.73;;;;;;;11.11;57.83;97967.97;6846576;28;20244;-76
2022/02/16 09:14:20;;;;;;;1.90;1.60;;;;;;;10.60;59.40;97949.53;6849736;29;20216;-76
2022/02/16 09:17:43;;;;;;;1.47;1.40;;;;;;;10.90;58.69;97949.56;6849523;28;20205;-76
2022/02/16 09:21:06;;;;;;;2.53;2.33;;;;;;;10.88;59.35;97927.41;6827192;29;20237;-77
2022/02/16 09:24:28;;;;;;;2.23;1.50;;;;;;;10.83;60.01;97930.78;6823026;29;20214;-77
2022/02/16 09:27:50;;;;;;;1.53;1.47;;;;;;;10.92;59.61;97915.94;6822831;29;20577;-77
2022/02/16 09:31:13;;;;;;;3.33;1.50;;;;;;;10.91;60.09;97935.88;6822928;29;20206;-77
2022/02/16 09:34:35;;;;;;;1.53;1.50;;;;;;;10.40;60.40;97857.31;6822579;29;20240;-77
2022/02/16 09:37:57;;;;;;;1.50;1.40;;;;;;;9.97;59.87;97721.13;6822720;29;20206;-77
2022/02/16 09:41:19;;;;;;;1.80;1.70;;;;;;;10.58;59.46;97822.25;6822307;29;20230;-77
2022/02/16 09:44:45;;;;;;;2.63;1.70;;;;;;;11.09;59.60;97889.16;6822039;29;20202;-77
2022/02/16 09:48:08;;;;;;;1.73;1.63;;;;;;;10.65;59.79;97804.13;6822526;29;20222;-77
2022/02/16 09:51:30;;;;;;;2.10;2.00;;;;;;;10.97;60.28;97875.63;6822793;29;20684;-77
2022/02/16 09:54:52;;;;;;;1.50;1.47;;;;;;;11.27;58.67;97902.56;6821492;29;20217;-77
2022/02/16 09:58:13;;;;;;;1.50;1.43;;;;;;;11.37;57.41;97816.44;6822227;29;20222;-77
2022/02/16 10:01:53;;;;;;;1.70;1.60;;;;;;;11.50;58.36;97899.88;6821568;29;20712;-77
2022/02/16 10:05:18;;;;;;;1.60;1.50;;;;;;;11.47;57.90;97857.19;6820969;29;20234;-77
2022/02/16 10:08:40;;;;;;;1.37;1.20;;;;;;;11.80;56.61;97860.97;6822253;29;20604;-77
2022/02/16 10:12:04;;;;;;;1.40;1.40;;;;;;;11.58;56.33;97832.06;6821817;29;20208;-77
2022/02/16 10:15:39;;;;;;;1.57;1.57;;;;;;;11.37;57.74;97884.75;6822124;29;20218;-76
2022/02/16 10:19:02;;;;;;;1.77;1.50;;;;;;;11.28;57.29;97834.84;6822144;29;20218;-77
2022/02/16 10:22:28;;;;;;;1.80;1.70;;;;;;;12.17;55.85;97886.66;6820693;29;20493;-77
2022/02/16 10:25:51;;;;;;;2.13;1.53;;;;;;;12.63;55.21;97912.78;6821392;29;20259;-77
2022/02/16 10:29:18;;;;;;;1.30;1.30;;;;;;;11.62;55.67;97836.00;6821236;29;20590;-77
2022/02/16 10:32:41;;;;;;;1.33;1.33;;;;;;;11.82;56.09;97901.25;6821366;29;20216;-77
2022/02/16 10:36:05;;;;;;;1.20;1.20;;;;;;;12.10;56.03;97921.09;6821509;29;20213;-77
2022/02/16 10:39:28;;;;;;;1.30;1.30;;;;;;;12.02;55.56;97891.72;6821537;29;20210;-77
2022/02/16 10:42:55;;;;;;;1.37;1.20;;;;;;;12.20;54.41;97842.94;6821025;29;20309;-77
2022/02/16 10:46:19;;;;;;;1.53;1.47;;;;;;;11.85;54.71;97763.88;6821199;29;20217;-77
2022/02/16 10:49:43;;;;;;;2.83;2.20;;;;;;;13.28;53.00;97876.19;6821162;29;20206;-77
2022/02/16 10:53:06;;;;;;;3.53;3.20;;;;;;;12.80;52.71;97784.66;6820980;29;20270;-76
2022/02/16 10:56:31;;;;;;;1.43;1.40;;;;;;;12.13;54.32;97796.34;6820864;29;20214;-77
2022/02/16 10:59:53;;;;;;;2.30;2.10;;;;;;;13.37;53.05;97862.00;6820911;29;20658;-77
2022/02/16 11:03:28;;;;;;;1.60;1.50;;;;;;;13.70;51.96;97869.28;6821039;29;20687;-77
2022/02/16 11:06:50;;;;;;;1.57;1.47;;;;;;;13.38;51.93;97819.47;6821042;29;20211;-75
2022/02/16 11:10:12;;;;;;;2.00;1.80;;;;;;;14.19;50.72;97865.69;6820359;29;20297;-78
2022/02/16 11:13:37;;;;;;;1.80;1.70;;;;;;;13.63;50.30;97774.66;6820344;29;20203;-78
2022/02/16 11:16:59;;;;;;;1.10;1.10;;;;;;;13.12;52.40;97860.72;6820613;29;20210;-76
2022/02/16 11:20:23;;;;;;;1.00;1.00;;;;;;;12.77;51.75;97749.97;6820031;29;20209;-76
2022/02/16 11:23:47;;;;;;;1.57;1.47;;;;;;;13.94;51.76;97849.88;6819756;29;20234;-76
2022/02/16 11:27:31;;;;;;;1.10;1.10;;;;;;;12.65;54.22;97841.19;6820209;29;20219;-76
2022/02/16 11:30:54;;;;;;;1.20;1.20;;;;;;;13.41;52.16;97846.91;6814387;29;20582;-76
2022/02/16 11:34:18;;;;;;;0.90;0.90;;;;;;;14.19;50.38;97850.25;6818787;29;20684;-76
2022/02/16 11:37:40;;;;;;;1.20;1.17;;;;;;;13.27;51.49;97747.31;6819965;29;20274;-76
2022/02/16 11:41:02;;;;;;;1.17;1.17;;;;;;;13.81;51.86;97830.44;6819933;29;20210;-77
2022/02/16 11:44:24;;;;;;;1.13;1.13;;;;;;;14.08;51.67;97836.78;6819496;29;20258;-77
2022/02/16 11:47:56;;;;;;;1.17;1.17;;;;;;;13.84;50.45;97735.09;6819537;29;20221;-77
2022/02/16 11:51:38;;;;;;;1.67;1.20;;;;;;;13.93;51.10;97783.19;6819233;29;20217;-77
2022/02/16 11:55:01;;;;;;;1.20;1.20;;;;;;;13.44;52.61;97832.03;6813540;29;20213;-77
2022/02/16 11:58:23;;;;;;;0.90;0.90;;;;;;;13.61;51.86;97790.34;6819316;29;20215;-77
2022/02/16 12:02:07;;;;;;;1.10;1.10;;;;;;;14.23;51.75;97828.88;6819244;29;20235;-77
2022/02/16 12:05:45;;;;;;;1.07;1.07;;;;;;;14.09;51.66;97833.81;6818990;29;20206;-76
2022/02/16 12:09:08;;;;;;;1.00;1.00;;;;;;;14.06;51.07;97752.19;6819417;29;20222;-77
2022/02/16 12:12:31;;;;;;;1.20;1.20;;;;;;;13.37;52.64;97733.91;6819357;29;20577;-77
2022/02/16 12:15:56;;;;;;;1.30;1.10;;;;;;;14.13;52.37;97837.69;6819330;29;20219;-77
2022/02/16 12:19:20;;;;;;;1.30;1.30;;;;;;;13.48;53.33;97743.81;6818949;29;20221;-77
2022/02/16 12:22:45;;;;;;;1.43;1.30;;;;;;;14.34;52.82;97796.22;6818971;29;20376;-77
2022/02/16 12:26:10;;;;;;;1.00;1.00;;;;;;;13.51;51.54;97638.53;6818669;29;20275;-77
2022/02/16 12:29:34;;;;;;;1.20;1.20;;;;;;;14.34;52.77;97808.97;6819124;29;20569;-77
2022/02/16 12:32:56;;;;;;;1.00;1.00;;;;;;;13.23;56.33;97755.09;6818676;29;20230;-77
2022/02/16 12:36:18;;;;;;;1.33;1.30;;;;;;;14.05;55.80;97772.25;6818514;29;20298;-77
2022/02/16 12:39:42;;;;;;;1.13;1.13;;;;;;;15.01;53.46;97797.50;6800622;29;20214;-77
2022/02/16 12:43:13;;;;;;;1.20;1.20;;;;;;;13.68;55.10;97676.41;6818435;29;20227;-77
2022/02/16 12:46:36;;;;;;;1.33;1.13;;;;;;;14.05;55.41;97745.16;6818017;29;20579;-77
2022/02/16 12:50:06;;;;;;;1.07;0.90;;;;;;;13.34;57.48;97691.13;6818329;29;20227;-76
2022/02/16 12:53:37;;;;;;;1.13;1.13;;;;;;;14.16;55.14;97655.56;6818243;29;20214;-77
2022/02/16 12:57:02;;;;;;;1.00;1.00;;;;;;;14.64;54.92;97750.44;6818016;29;20228;-77
2022/02/16 13:04:04;;;;;;;1.17;1.17;;;;;;;14.11;56.55;97746.84;6817972;29;20713;-77
2022/02/16 13:07:28;;;;;;;0.90;0.90;;;;;;;14.81;55.46;97723.22;6818374;29;20206;-77
2022/02/16 13:10:50;;;;;;;1.23;1.23;;;;;;;14.18;54.46;97631.72;6818006;29;20256;-77
2022/02/16 13:14:14;;;;;;;1.10;1.10;;;;;;;13.61;56.37;97633.25;6817756;29;20198;-77
2022/02/16 13:17:42;;;;;;;1.00;1.00;;;;;;;13.90;56.43;97718.69;6816185;29;20209;-77
2022/02/16 13:21:22;;;;;;;0.90;0.90;;;;;;;14.02;55.98;97719.38;6816530;29;20221;-77
2022/02/16 13:24:56;;;;;;;1.10;1.10;;;;;;;14.12;55.64;97705.94;6817657;29;20231;-76
2022/02/16 13:28:19;;;;;;;1.20;1.00;;;;;;;13.51;56.56;97684.56;6817712;29;20354;-76
2022/02/16 13:31:43;;;;;;;0.90;0.90;;;;;;;14.30;55.35;97708.34;6818009;29;20594;-77
2022/02/16 13:35:15;;;;;;;1.30;1.30;;;;;;;14.15;55.14;97694.56;6817706;29;20219;-76
2022/02/16 13:38:37;;;;;;;1.07;1.07;;;;;;;14.71;54.59;97714.97;6801229;29;20267;-76
2022/02/16 13:42:00;;;;;;;2.10;1.90;;;;;;;15.27;52.11;97700.78;6817668;29;20207;-76
2022/02/16 13:45:28;;;;;;;1.93;1.83;;;;;;;14.82;53.62;97700.44;6817330;29;20210;-76
2022/02/16 13:48:51;;;;;;;1.23;0.90;;;;;;;14.57;52.98;97637.81;6817593;29;20775;-77
2022/02/16 13:52:13;;;;;;;1.17;1.17;;;;;;;14.97;53.37;97716.81;6817373;29;20213;-76
2022/02/16 13:55:47;;;;;;;1.17;1.17;;;;;;;15.02;52.71;97731.25;6817631;29;20213;-77
2022/02/16 13:59:09;;;;;;;1.00;1.00;;;;;;;14.88;52.83;97686.66;6822017;29;20223;-77
2022/02/16 14:02:32;;;;;;;2.57;1.10;;;;;;;14.52;53.19;97635.06;6822144;29;20231;-76
2022/02/16 14:05:55;;;;;;;1.10;1.10;;;;;;;14.66;53.31;97642.50;6822055;29;20208;-77
2022/02/16 14:09:17;;;;;;;4.90;1.17;;;;;;;14.82;54.13;97722.94;6822248;29;20219;-76
2022/02/16 14:12:40;;;;;;;1.10;1.10;;;;;;;15.09;52.93;97714.75;6822393;29;20223;-77
2022/02/16 14:16:06;;;;;;;2.20;1.10;;;;;;;14.67;53.62;97646.03;6822347;29;20212;-77
2022/02/16 14:19:28;;;;;;;1.20;1.20;;;;;;;14.89;53.28;97669.28;6822357;29;20277;-77
2022/02/16 14:22:51;;;;;;;1.57;1.20;;;;;;;15.23;53.15;97724.91;6822099;29;20237;-76
2022/02/16 14:26:13;;;;;;;0.90;0.90;;;;;;;14.50;54.08;97670.56;6821718;29;20216;-76
2022/02/16 14:29:35;;;;;;;1.10;1.10;;;;;;;14.62;54.25;97692.91;6822572;29;20211;-76
2022/02/16 14:32:58;;;;;;;1.10;1.10;;;;;;;14.36;54.54;97698.34;6821223;29;20223;-76
2022/02/16 14:36:20;;;;;;;1.33;0.93;;;;;;;14.80;55.05;97746.00;6821372;29;20215;-76
2022/02/16 14:39:44;;;;;;;1.00;1.00;;;;;;;15.14;53.22;97729.19;6821736;29;20215;-76
2022/02/16 14:43:06;;;;;;;1.10;0.90;;;;;;;14.26;54.41;97638.59;6821703;29;20243;-76
2022/02/16 14:46:28;;;;;;;0.90;0.90;;;;;;;14.97;54.83;97736.66;6820868;29;20210;-76
2022/02/16 14:49:50;;;;;;;1.80;1.10;;;;;;;14.21;54.81;97635.84;6818141;29;20210;-76
2022/02/16 14:53:11;;;;;;;1.37;1.20;;;;;;;14.38;54.74;97612.97;6820515;29;20209;-76
2022/02/16 14:56:35;;;;;;;1.13;1.10;;;;;;;14.84;54.94;97680.09;6820795;29;20690;-76
2022/02/16 14:59:57;;;;;;;0.90;0.90;;;;;;;14.70;54.80;97632.75;6820415;29;20221;-76
2022/02/16 15:03:19;;;;;;;0.90;0.90;;;;;;;14.97;54.97;97693.22;6820526;29;20238;-76
2022/02/16 15:06:40;;;;;;;0.90;0.90;;;;;;;14.74;54.26;97601.31;6820578;29;20213;-76
2022/02/16 15:10:02;;;;;;;0.97;0.97;;;;;;;15.29;54.10;97690.47;6820572;29;20217;-76
2022/02/16 15:13:27;;;;;;;0.90;0.90;;;;;;;14.97;54.61;97681.53;6820321;29;20233;-76
2022/02/16 15:16:48;;;;;;;0.80;0.80;;;;;;;14.63;54.63;97626.72;6820640;29;20301;-76
2022/02/16 15:20:11;;;;;;;0.90;0.90;;;;;;;15.23;54.43;97703.19;6820443;29;20223;-77
2022/02/16 15:23:33;;;;;;;1.03;0.93;;;;;;;14.55;55.97;97722.16;6820065;29;20236;-77
2022/02/16 15:26:54;;;;;;;1.07;1.07;;;;;;;14.60;54.34;97629.16;6803718;29;20220;-78
2022/02/16 15:30:18;;;;;;;1.13;1.03;;;;;;;14.78;54.27;97656.72;6820568;29;20213;-78
2022/02/16 15:33:39;;;;;;;2.77;1.63;;;;;;;15.66;53.01;97721.13;6819586;29;20212;-76
2022/02/16 15:37:01;;;;;;;0.90;0.90;;;;;;;14.95;54.79;97711.66;6820162;29;20207;-76
2022/02/16 15:40:23;;;;;;;1.00;1.00;;;;;;;15.34;53.73;97740.22;6819853;29;20215;-77
2022/02/16 15:43:45;;;;;;;1.27;1.27;;;;;;;15.65;52.86;97725.78;6820115;29;20235;-76
2022/02/16 15:47:08;;;;;;;1.10;1.10;;;;;;;14.95;53.43;97656.56;6819644;29;20211;-76
2022/02/16 15:50:30;;;;;;;1.03;1.00;;;;;;;14.64;55.61;97720.59;6820015;29;20780;-78
2022/02/16 15:53:52;;;;;;;0.90;0.90;;;;;;;15.24;53.19;97690.44;6819562;29;20235;-77
2022/02/16 15:57:15;;;;;;;0.93;0.93;;;;;;;15.69;52.90;97726.06;6819411;29;20216;-77
2022/02/16 16:00:37;;;;;;;2.47;1.10;;;;;;;15.09;53.38;97688.41;6819532;29;20217;-77
2022/02/16 16:04:00;;;;;;;1.00;1.00;;;;;;;14.74;53.75;97643.94;6819189;29;20370;-77
2022/02/16 16:07:23;;;;;;;1.00;1.00;;;;;;;15.51;53.56;97729.22;6819048;29;20227;-77
2022/02/16 16:10:46;;;;;;;1.10;1.10;;;;;;;14.24;55.59;97670.56;6819627;29;20224;-77
2022/02/16 16:14:08;;;;;;;1.30;1.30;;;;;;;15.73;52.80;97727.97;6818845;29;20208;-77
2022/02/16 16:17:29;;;;;;;1.30;1.20;;;;;;;16.06;52.47;97746.63;6818881;29;20216;-78
2022/02/16 16:20:52;;;;;;;1.33;1.30;;;;;;;16.04;52.06;97756.94;6818830;29;20225;-76
2022/02/16 16:24:14;;;;;;;1.00;1.00;;;;;;;14.50;54.17;97613.63;6818987;29;20232;-78
2022/02/16 16:27:36;;;;;;;0.90;0.90;;;;;;;15.32;53.93;97755.09;6819104;29;20214;-75
2022/02/16 16:30:58;;;;;;;1.03;1.00;;;;;;;15.82;52.74;97748.13;6818450;29;20205;-76
2022/02/16 16:34:19;;;;;;;1.10;1.10;;;;;;;15.58;53.67;97768.63;6818735;29;20690;-77
2022/02/16 16:37:43;;;;;;;1.43;1.33;;;;;;;15.02;54.33;97684.28;6819195;29;20216;-77
2022/02/16 16:41:05;;;;;;;1.70;1.60;;;;;;;15.48;53.98;97749.56;6819236;29;20213;-77
2022/02/16 16:44:26;;;;;;;1.50;1.20;;;;;;;15.11;56.17;97770.41;6818394;29;20237;-77
2022/02/16 16:47:48;;;;;;;1.97;1.30;;;;;;;15.06;56.09;97751.41;6818985;29;20222;-76
2022/02/16 16:51:10;;;;;;;1.37;1.37;;;;;;;15.24;55.84;97769.19;6818700;29;20216;-77
2022/02/16 16:54:34;;;;;;;1.73;1.10;;;;;;;14.96;56.55;97735.00;6818062;29;20209;-77
2022/02/16 16:57:55;;;;;;;1.40;1.30;;;;;;;15.36;55.82;97762.53;6818409;29;20218;-77
2022/02/16 17:01:18;;;;;;;1.20;1.10;;;;;;;15.05;56.84;97747.00;6817521;29;20223;-76
2022/02/16 17:04:40;;;;;;;2.03;1.43;;;;;;;14.13;58.01;97675.03;6816004;29;20391;-76
2022/02/16 17:08:02;;;;;;;0.90;0.90;;;;;;;14.61;56.88;97690.44;6816423;29;20208;-77
2022/02/16 17:11:25;;;;;;;0.93;0.93;;;;;;;14.84;57.29;97731.66;6816225;29;20672;-77
2022/02/16 17:14:46;;;;;;;1.10;1.10;;;;;;;14.14;57.77;97618.94;6816565;29;20212;-76
2022/02/16 17:18:08;;;;;;;1.20;1.10;;;;;;;15.02;57.18;97744.84;6816716;29;20211;-77
2022/02/16 17:21:30;;;;;;;1.43;1.10;;;;;;;14.39;57.50;97643.63;6800035;29;20578;-77
2022/02/16 17:24:52;;;;;;;1.40;1.13;;;;;;;14.84;57.72;97733.53;6816571;29;20241;-77
2022/02/16 17:28:15;;;;;;;1.40;1.30;;;;;;;15.25;56.17;97733.63;6816694;29;20213;-76
2022/02/16 17:31:37;;;;;;;1.97;1.77;;;;;;;15.05;55.18;97652.00;6817511;29;20211;-76
2022/02/16 17:34:58;;;;;;;2.33;1.50;;;;;;;15.47;54.96;97742.50;6821881;29;20225;-76
2022/02/16 17:38:20;;;;;;;1.80;1.70;;;;;;;15.48;54.27;97678.13;6821713;29;20223;-75
2022/02/16 17:41:42;;;;;;;2.43;2.17;;;;;;;15.62;54.64;97739.88;6821885;29;20217;-76
2022/02/16 17:45:06;;;;;;;1.80;1.70;;;;;;;15.04;56.23;97733.72;6821485;29;20247;-75
2022/02/16 17:48:28;;;;;;;1.60;1.50;;;;;;;14.84;56.91;97755.25;6821504;29;20252;-75
2022/02/16 17:51:50;;;;;;;1.80;1.70;;;;;;;15.20;56.15;97752.59;6821596;29;20210;-75
2022/02/16 17:55:13;;;;;;;1.60;1.50;;;;;;;15.48;54.98;97760.44;6821321;29;20860;-75
2022/02/16 17:58:35;;;;;;;2.17;1.70;;;;;;;15.16;55.47;97746.03;6821190;29;20701;-75
2022/02/16 18:01:59;;;;;;;1.63;1.53;;;;;;;14.97;55.38;97717.66;6821489;29;20215;-75
2022/02/16 18:05:21;;;;;;;2.33;1.70;;;;;;;14.67;55.67;97673.97;6821352;29;20323;-75
2022/02/16 18:08:43;;;;;;;2.20;1.30;;;;;;;14.86;56.59;97723.25;6821000;29;20212;-75
2022/02/16 18:12:05;;;;;;;1.43;1.33;;;;;;;14.25;57.81;97678.47;6821031;29;20572;-75
2022/02/16 18:15:28;;;;;;;1.07;1.07;;;;;;;15.12;56.51;97761.22;6820731;29;20209;-75
2022/02/16 18:18:51;;;;;;;1.83;1.60;;;;;;;15.16;56.38;97735.16;6821151;29;20223;-75
2022/02/16 18:22:12;;;;;;;1.97;1.73;;;;;;;14.46;57.40;97649.66;6820952;29;20236;-75
2022/02/16 18:25:35;;;;;;;1.43;1.33;;;;;;;14.72;57.67;97722.88;6820280;29;20230;-75
2022/02/16 18:28:57;;;;;;;1.73;1.63;;;;;;;14.78;56.96;97658.59;6820984;29;20687;-75
2022/02/16 18:32:19;;;;;;;1.53;1.30;;;;;;;14.93;57.34;97713.81;6820331;29;20579;-75
2022/02/16 18:35:42;;;;;;;1.37;1.27;;;;;;;15.12;55.92;97659.94;6820316;29;20210;-75
2022/02/16 18:39:06;;;;;;;1.40;1.30;;;;;;;15.17;56.16;97701.50;6821209;29;20683;-75
2022/02/16 18:42:28;;;;;;;1.03;1.03;;;;;;;14.89;57.69;97707.28;6820313;29;20224;-75
2022/02/16 18:45:50;;;;;;;1.10;1.10;;;;;;;15.36;56.15;97677.50;6819644;29;20303;-75
2022/02/16 18:49:12;;;;;;;1.30;1.30;;;;;;;15.71;55.07;97674.97;6820571;29;20722;-75
2022/02/16 18:52:35;;;;;;;2.30;1.90;;;;;;;15.22;56.37;97677.09;6819758;29;20682;-75
2022/02/16 18:55:57;;;;;;;2.10;1.90;;;;;;;15.14;54.96;97614.34;6819463;29;20224;-75
2022/02/16 18:59:18;;;;;;;1.70;1.60;;;;;;;15.83;54.14;97681.00;6819780;29;20207;-75
2022/02/16 19:02:40;;;;;;;1.30;1.20;;;;;;;16.31;53.22;97694.22;6819587;29;20699;-75
2022/02/16 19:06:02;;;;;;;1.27;1.27;;;;;;;15.47;54.94;97668.34;6819681;29;20237;-75
2022/02/16 19:09:27;;;;;;;1.33;1.30;;;;;;;15.53;54.96;97697.16;6819763;29;20217;-75
2022/02/16 19:12:48;;;;;;;1.30;1.30;;;;;;;15.67;54.35;97671.13;6819284;29;20222;-75
2022/02/16 19:16:11;;;;;;;1.00;1.00;;;;;;;15.01;56.30;97650.91;6819380;29;20645;-75
2022/02/16 19:19:35;;;;;;;1.00;1.00;;;;;;;14.59;55.53;97517.13;6819341;29;20230;-75
2022/02/16 19:22:57;;;;;;;1.80;1.70;;;;;;;14.86;57.15;97637.22;6818746;29;20311;-75
2022/02/16 19:26:20;;;;;;;1.30;1.30;;;;;;;14.82;57.78;97641.53;6818759;29;20235;-75
2022/02/16 19:29:42;;;;;;;1.10;1.10;;;;;;;15.03;57.25;97675.91;6819444;29;20207;-76
2022/02/16 19:33:04;;;;;;;2.03;1.60;;;;;;;15.34;56.43;97656.03;6818751;29;20581;-76
2022/02/16 19:36:25;;;;;;;1.00;1.00;;;;;;;15.05;57.11;97630.28;6818941;29;20233;-76
2022/02/16 19:39:47;;;;;;;1.20;1.20;;;;;;;15.33;57.00;97648.97;6819028;29;20222;-76
2022/02/16 19:43:18;;;;;;;1.10;1.10;;;;;;;15.38;56.54;97637.31;6819012;29;20221;-76
2022/02/16 19:46:43;;;;;;;1.20;1.20;;;;;;;15.58;55.05;97607.53;6818508;29;20214;-76
2022/02/16 19:50:07;;;;;;;1.30;1.30;;;;;;;15.23;55.43;97567.41;6818686;29;20215;-76
2022/02/16 19:53:29;;;;;;;1.20;1.20;;;;;;;15.28;56.53;97656.25;6817853;29;20572;-76
2022/02/16 19:56:51;;;;;;;1.50;1.40;;;;;;;15.21;56.22;97607.59;6818101;29;20245;-76
2022/02/16 20:00:17;;;;;;;1.23;1.20;;;;;;;14.74;57.05;97582.31;6818157;29;20663;-76
2022/02/16 20:03:38;;;;;;;4.00;1.23;;;;;;;15.48;56.46;97651.78;6817958;29;20234;-76
2022/02/16 20:07:00;;;;;;;0.93;0.90;;;;;;;14.92;56.48;97575.69;6818058;29;20223;-76
2022/02/16 20:10:22;;;;;;;0.90;0.90;;;;;;;15.19;56.96;97641.50;6818454;29;20384;-76
2022/02/16 20:13:44;;;;;;;1.17;1.17;;;;;;;15.32;56.75;97639.19;6818180;29;20276;-75
2022/02/16 20:17:07;;;;;;;2.33;1.20;;;;;;;14.51;57.35;97550.16;6818344;29;20209;-76
2022/02/16 20:20:34;;;;;;;1.20;1.20;;;;;;;15.48;56.11;97611.03;6818483;29;20208;-76
2022/02/16 20:23:56;;;;;;;1.20;1.20;;;;;;;14.75;57.30;97567.69;6817905;29;20231;-76
2022/02/16 20:27:18;;;;;;;1.47;1.07;;;;;;;15.14;56.15;97562.75;6818192;29;20219;-76
2022/02/16 20:30:39;;;;;;;1.10;1.10;;;;;;;15.51;56.33;97620.56;6817794;29;20208;-76
2022/02/16 20:34:03;;;;;;;1.00;1.00;;;;;;;15.38;57.00;97624.56;6817761;29;20217;-76
2022/02/16 20:37:25;;;;;;;0.90;0.90;;;;;;;15.43;56.63;97611.00;6817941;29;20210;-76
2022/02/16 20:40:47;;;;;;;1.23;1.17;;;;;;;14.98;56.31;97528.50;6818018;29;20211;-76
2022/02/16 20:44:09;;;;;;;1.00;1.00;;;;;;;15.19;57.71;97587.22;6817338;29;20231;-76
2022/02/16 20:47:31;;;;;;;0.90;0.90;;;;;;;15.09;56.22;97522.84;6817373;29;20303;-76
2022/02/16 20:50:54;;;;;;;1.30;1.20;;;;;;;14.97;56.50;97486.13;6817303;29;20208;-76